Latest Coastal Weather Observations for Low Isles

IDQ60701

Issued at 1:01 pm EST Monday 30 May 2016 (issued every 10 minutes, with the page automatically refreshed every 10 minutes)

About coastal observations | Map of coastal stations | Coastal observations for QLD | Marine services | Other Formats
Station Details ID: 031037 Name: LOW ISLES LIGHTHOUSE Lat: -16.38 Lon: 145.56 Height: 2.9 m
Data from the previous 72 hours. | See also: Recent months at Low Isles
Date/Time
EST
Temp

°C
Wind Pressure Rain
since 9am
mm
Weather Cloud Vis
km
Sea
Height
m
Swell
Dir
 
Speed
knots
Gust
knots
hPa Trend Height
m
Period
s
Dir
30/01:00pm 27.9 SE 15 17 1016.2 - 0.0 - - - - - - -
30/12:30pm 27.8 SE 16 19 1016.8 - 0.0 - - - - - - -
30/12:00pm 27.6 SSE 13 15 1017.3 - 0.0 - - - - - - -
30/11:30am 27.4 SSE 13 15 1017.7 - 0.0 - - - - - - -
30/11:00am 27.5 SSE 12 15 1017.9 - 0.0 - - - - - - -
30/10:30am 26.9 SSE 13 14 1018.0 - 0.0 - - - - - - -
30/10:00am 26.4 SSE 12 14 1018.1 - 0.0 - - - - - - -
30/09:30am 26.2 SSE 11 13 1018.0 - 0.0 - - - - - - -
30/09:00am 26.0 SSE 9 11 1017.7 - 2.6 Distant precip. Cloudy 18 - - - -
30/08:30am 25.9 SSE 10 11 1017.5 - 2.6 - - - - - - -
30/08:00am 25.6 SSE 10 11 1017.2 - 2.6 - - - - - - -
30/07:30am 25.6 S 10 11 1016.9 - 2.6 - - - - - - -
30/07:00am 25.5 SSE 10 11 1016.7 - 2.6 - - - - - - -
30/06:30am 25.6 SSE 10 11 1016.5 - 2.6 - - - - - - -
30/06:00am 25.5 SE 10 11 1016.1 - 2.6 - - - - - - -
30/05:30am 25.6 SE 10 11 1016.1 - 2.6 - - - - - - -
30/05:00am 25.6 SSE 12 13 1015.9 - 2.6 - - - - - - -
30/04:30am 25.7 SSE 13 14 1015.7 - 2.6 - - - - - - -
30/04:00am 25.7 SSE 12 13 1015.6 - 2.6 - - - - - - -
30/03:30am 25.7 SSE 12 14 1015.7 - 2.6 - - - - - - -
30/03:00am 25.8 SSE 13 15 1015.5 - 2.6 - - - - - - -
30/02:30am 25.8 SSE 12 14 1015.8 - 2.6 - - - - - - -
30/02:00am 25.7 SSE 13 15 1015.9 - 2.6 - - - - - - -
30/01:30am 25.8 SSE 12 14 1016.0 - 2.6 - - - - - - -
30/01:00am 25.9 SSE 12 13 1016.1 - 2.6 - - - - - - -
30/12:30am 25.9 SE 10 13 1016.2 - 2.6 - - - - - - -
30/12:00am 25.8 SE 11 12 1016.2 - 2.6 - - - - - - -
 
Date/Time
EST
Temp

°C
Wind Pressure Rain
since 9am
mm
Weather Cloud Vis
km
Sea
Height
m
Swell
Dir
 
Speed
knots
Gust
knots
hPa Trend Height
m
Period
s
Dir
29/11:30pm 26.0 SE 12 14 1016.6 - 2.6 - - - - - - -
29/11:00pm 26.1 SSE 12 15 1016.7 - 2.6 - - - - - - -
29/10:30pm 26.3 SSE 12 14 1016.7 - 2.6 - - - - - - -
29/10:00pm 25.9 SE 10 12 1016.6 - 2.6 - - - - - - -
29/09:30pm 25.6 ESE 9 11 1016.6 - 2.6 - - - - - - -
29/09:00pm 25.8 ESE 8 10 1016.4 - 2.6 - - - - - - -
29/08:30pm 26.1 ESE 8 11 1016.2 - 2.6 - - - - - - -
29/08:00pm 26.5 SE 13 14 1015.9 - 2.6 - - - - - - -
29/07:30pm 26.2 SE 11 13 1015.6 - 2.6 - - - - - - -
29/07:00pm 26.4 SE 11 14 1015.3 - 2.6 - - - - - - -
29/06:30pm 26.3 ESE 10 13 1015.2 - 2.6 - - - - - - -
29/06:00pm 26.5 ESE 9 11 1015.0 - 2.6 - - - - - - -
29/05:30pm 26.7 ESE 11 12 1015.0 - 2.6 - - - - - - -
29/05:00pm 26.9 ESE 9 11 1014.7 - 2.6 - - - - - - -
29/04:30pm 27.6 ESE 9 12 1014.7 - 2.6 - - - - - - -
29/04:00pm 28.4 ESE 9 12 1014.4 - 2.6 - - - - - - -
29/03:30pm 28.8 ESE 7 9 1014.3 - 2.6 - - - - - - -
29/03:00pm 29.0 ESE 8 11 1014.3 - 2.6 - - - - - - -
29/02:30pm 29.2 SE 7 9 1014.5 - 2.6 - - - - - - -
29/02:00pm 28.6 SE 6 8 1014.6 - 2.6 - - - - - - -
29/01:30pm 28.8 SE 7 9 1014.9 - 2.6 - - - - - - -
29/01:00pm 27.8 SE 7 9 1015.2 - 2.6 - - - - - - -
29/12:30pm 28.2 SSE 8 9 1015.4 - 2.6 - - - - - - -
29/12:00pm 27.9 SSE 8 10 1015.6 - 2.6 - - - - - - -
29/11:30am 27.6 SSE 8 9 1015.9 - 2.6 - - - - - - -
29/11:00am 26.9 S 5 6 1016.1 - 2.6 - - - - - - -
29/10:30am 26.0 SSE 5 6 1016.4 - 2.6 - - - - - - -
29/10:00am 25.6 SSE 6 8 1016.4 - 2.6 - - - - - - -
29/09:30am 26.1 SE 1 3 1016.6 - 0.0 - - - - - - -
29/09:00am 25.3 SW 6 7 1016.4 - 0.0 Haze Cloudy 18 - - - -
29/08:30am 25.2 SW 7 7 1016.2 - 0.0 - - - - - - -
29/08:00am 24.9 WSW 7 8 1015.9 - 0.0 - - - - - - -
29/07:30am 25.3 WSW 7 8 1015.7 - 0.0 - - - - - - -
29/07:00am 25.3 WSW 6 7 1015.3 - 0.0 - - - - - - -
29/06:30am 25.2 WSW 6 7 1014.8 - 0.0 - - - - - - -
29/06:00am 25.2 WSW 7 8 1014.2 - 0.0 - - - - - - -
29/05:30am 25.4 SSW 4 5 1014.0 - 0.0 - - - - - - -
29/05:00am 25.5 SSW 6 7 1013.6 - 0.0 - - - - - - -
29/04:30am 25.8 S 6 8 1013.7 - 0.0 - - - - - - -
29/04:00am 25.8 S 8 9 1013.3 - 0.0 - - - - - - -
29/03:30am 25.8 SSE 8 9 1013.2 - 0.0 - - - - - - -
29/03:00am 25.8 SSE 9 9 1013.2 - 0.0 - - - - - - -
29/02:30am 25.7 SSE 9 10 1013.4 - 0.0 - - - - - - -
29/02:00am 25.7 SSE 8 9 1013.7 - 0.0 - - - - - - -
29/01:30am 25.8 SSE 8 9 1013.9 - 0.0 - - - - - - -
29/01:00am 25.8 SSE 8 9 1013.9 - 0.0 - - - - - - -
29/12:30am 25.9 SSE 8 9 1014.3 - 0.0 - - - - - - -
29/12:00am 26.1 SSE 10 11 1014.3 - 0.0 - - - - - - -
 
Date/Time
EST
Temp

°C
Wind Pressure Rain
since 9am
mm
Weather Cloud Vis
km
Sea
Height
m
Swell
Dir
 
Speed
knots
Gust
knots
hPa Trend Height
m
Period
s
Dir
28/11:30pm 26.0 SE 7 9 1014.5 - 0.0 - - - - - - -
28/11:00pm 26.1 SSE 7 8 1014.7 - 0.0 - - - - - - -
28/10:30pm 26.2 SSE 7 8 1014.9 - 0.0 - - - - - - -
28/10:00pm 26.3 SSE 6 7 1015.1 - 0.0 - - - - - - -
28/09:30pm 26.2 S 6 7 1014.9 - 0.0 - - - - - - -
28/09:00pm 25.7 S 4 5 1014.6 - 0.0 - - - - - - -
28/08:30pm 25.7 SW 3 4 1014.7 - 0.0 - - - - - - -
28/08:00pm 25.9 CALM 0 0 1014.4 - 0.0 - - - - - - -
28/07:30pm 25.9 CALM 0 0 1014.2 - 0.0 - - - - - - -
28/07:00pm 25.8 CALM 0 0 1013.9 - 0.0 - - - - - - -
28/06:30pm 26.1 ENE 2 3 1013.4 - 0.0 - - - - - - -
28/06:00pm 26.3 ENE 1 3 1013.1 - 0.0 - - - - - - -
28/05:30pm 27.0 NE 3 4 1013.0 - 0.0 - - - - - - -
28/05:00pm 28.0 NE 5 6 1012.7 - 0.0 - - - - - - -
28/04:30pm 29.2 NNE 7 8 1012.7 - 0.0 - - - - - - -
28/04:00pm 29.9 NNE 8 10 1012.4 - 0.0 - - - - - - -
28/03:30pm 30.2 NNE 8 10 1012.2 - 0.0 - - - - - - -
28/03:00pm 30.9 NNE 9 10 1012.1 - 0.0 - - - - - - -
28/02:30pm 30.2 NNE 10 11 1012.5 - 0.0 - - - - - - -
28/02:00pm 29.9 NNE 11 13 1012.5 - 0.0 - - - - - - -
28/01:30pm 29.9 NNE 11 12 1012.8 - 0.0 - - - - - - -
28/01:00pm 29.7 N 10 11 1013.2 - 0.0 - - - - - - -
28/12:30pm 30.3 NNE 10 11 1013.5 - 0.0 - - - - - - -
28/12:00pm 29.9 ENE 6 8 1013.7 - 0.0 - - - - - - -
28/11:30am 29.2 ENE 4 5 1014.2 - 0.0 - - - - - - -
28/11:00am 28.6 N 3 4 1014.4 - 0.0 - - - - - - -
28/10:30am 27.4 N 1 4 1014.6 - 0.0 - - - - - - -
28/10:00am 26.3 NW 3 4 1014.9 - 0.0 - - - - - - -
28/09:30am 25.8 WNW 3 4 1015.1 - 0.0 - - - - - - -
28/09:00am 25.4 WNW 3 4 1015.2 - 0.0 Haze Cloudy 16 - - - -
28/08:30am 25.1 W 4 4 1015.1 - 0.0 - - - - - - -
28/08:00am 25.0 WSW 4 4 1014.7 - 0.0 - - - - - - -
28/07:30am 24.9 W 4 5 1014.2 - 0.0 - - - - - - -
28/07:00am 24.6 W 5 5 1013.9 - 0.0 - - - - - - -
28/06:30am 24.8 WSW 5 6 1013.7 - 0.0 - - - - - - -
28/06:00am 24.6 W 6 7 1013.5 - 0.0 - - - - - - -
28/05:30am 24.7 WNW 5 6 1013.2 - 0.0 - - - - - - -
28/05:00am 24.8 W 4 5 1013.1 - 0.0 - - - - - - -
28/04:30am 24.6 WNW 4 5 1013.1 - 0.0 - - - - - - -
28/04:00am 25.0 WSW 5 6 1012.9 - 0.0 - - - - - - -
28/03:30am 25.0 W 8 9 1012.7 - 0.0 - - - - - - -
28/03:00am 25.1 W 7 8 1012.4 - 0.0 - - - - - - -
28/02:30am 25.2 W 6 7 1012.6 - 0.0 - - - - - - -
28/02:00am 25.4 W 6 7 1012.9 - 0.0 - - - - - - -
28/01:30am 25.3 W 7 7 1013.0 - 0.0 - - - - - - -
28/01:00am 25.3 WNW 8 9 1013.2 - 0.0 - - - - - - -
28/12:30am 25.3 WNW 9 10 1013.2 - 0.0 - - - - - - -
28/12:00am 25.4 NW 9 10 1013.3 - 0.0 - - - - - - -
 
Date/Time
EST
Temp

°C
Wind Pressure Rain
since 9am
mm
Weather Cloud Vis
km
Sea
Height
m
Swell
Dir
 
Speed
knots
Gust
knots
hPa Trend Height
m
Period
s
Dir
27/11:30pm 25.4 NW 7 8 1013.5 - 0.0 - - - - - - -
27/11:00pm 25.5 NW 7 9 1013.6 - 0.0 - - - - - - -
27/10:30pm 25.6 NW 8 8 1013.6 - 0.0 - - - - - - -
27/10:00pm 25.6 NNW 8 9 1013.6 - 0.0 - - - - - - -
27/09:30pm 25.9 N 9 11 1013.5 - 0.0 - - - - - - -
27/09:00pm 25.9 N 8 9 1013.4 - 0.0 - - - - - - -
27/08:30pm 26.1 N 9 10 1013.4 - 0.0 - - - - - - -
27/08:00pm 26.1 N 9 11 1013.0 - 0.0 - - - - - - -
27/07:30pm 25.9 N 10 11 1012.8 - 0.0 - - - - - - -
27/07:00pm 26.1 N 10 12 1012.5 - 0.0 - - - - - - -
27/06:30pm 26.0 NNE 9 11 1012.2 - 0.0 - - - - - - -
27/06:00pm 26.2 N 11 13 1011.8 - 0.0 - - - - - - -
27/05:30pm 26.7 N 11 14 1011.6 - 0.0 - - - - - - -
27/05:00pm 27.1 N 13 14 1011.6 - 0.0 - - - - - - -
27/04:30pm 27.8 N 13 15 1011.4 - 0.0 - - - - - - -
27/04:00pm 28.3 N 13 15 1011.4 - 0.0 - - - - - - -
27/03:30pm 29.0 N 13 14 1011.4 - 0.0 - - - - - - -
27/03:00pm 29.4 NNE 11 13 1011.4 - 0.0 - - - - - - -
27/02:30pm 30.0 NNE 10 12 1011.7 - 0.0 - - - - - - -
27/02:00pm 30.9 NNE 8 9 1012.0 - 0.0 - - - - - - -
27/01:30pm 30.7 NNE 5 6 1012.4 - 0.0 - - - - - - -

Other Formats:

Comma delimited format used in spreadsheet applications
http://www.bom.gov.au/fwo/IDQ60701/IDQ60701.94285.axf

JavaScript Object Notation format (JSON) in row-major order
http://www.bom.gov.au/fwo/IDQ60701/IDQ60701.94285.json